Terminal Aerodrome Forecast
Issued by NWS

Home | Current Version | Previous Version | Text Only | Print | Product List | Glossary On
Versions: 1 2 3 4 5 6 7 8 9 10 11 12 13
000
FTUS44 KTSA 282300
TAFMLC
TAF
KMLC 282320Z 2900/2924 12006KT P6SM FEW250
     FM291500 16011G18KT P6SM BKN250
     FM292000 22008KT P6SM BKN200=

USA.gov is the U.S. government's official web portal to all federal, state and local government web resources and services.